sensor_id;sensor_type;location;lat;lon;timestamp;P1;durP1;ratioP1;P2;durP2;ratioP2
75647;SDS011;64238;51.466;7.260;2022-10-16T00:01:09;2.95;;;1.40;;
75647;SDS011;64238;51.466;7.260;2022-10-16T00:03:37;2.63;;;1.10;;
75647;SDS011;64238;51.466;7.260;2022-10-16T00:06:04;1.98;;;1.00;;
75647;SDS011;64238;51.466;7.260;2022-10-16T00:08:30;2.05;;;1.00;;
75647;SDS011;64238;51.466;7.260;2022-10-16T00:11:00;2.35;;;1.10;;
75647;SDS011;64238;51.466;7.260;2022-10-16T00:13:30;2.85;;;1.00;;
75647;SDS011;64238;51.466;7.260;2022-10-16T00:15:58;2.28;;;1.00;;
75647;SDS011;64238;51.466;7.260;2022-10-16T00:18:25;2.78;;;1.10;;
75647;SDS011;64238;51.466;7.260;2022-10-16T00:20:51;2.97;;;1.10;;
75647;SDS011;64238;51.466;7.260;2022-10-16T00:23:16;2.88;;;1.10;;
75647;SDS011;64238;51.466;7.260;2022-10-16T00:25:42;4.78;;;1.10;;
75647;SDS011;64238;51.466;7.260;2022-10-16T00:28:08;2.10;;;1.00;;
75647;SDS011;64238;51.466;7.260;2022-10-16T00:30:33;2.45;;;1.10;;
75647;SDS011;64238;51.466;7.260;2022-10-16T00:33:02;2.45;;;1.02;;
75647;SDS011;64238;51.466;7.260;2022-10-16T00:35:28;2.28;;;1.02;;
75647;SDS011;64238;51.466;7.260;2022-10-16T00:37:54;2.25;;;1.02;;
75647;SDS011;64238;51.466;7.260;2022-10-16T00:40:19;1.85;;;1.00;;
75647;SDS011;64238;51.466;7.260;2022-10-16T00:42:45;3.00;;;0.90;;
75647;SDS011;64238;51.466;7.260;2022-10-16T00:45:10;2.80;;;1.00;;
75647;SDS011;64238;51.466;7.260;2022-10-16T00:47:37;2.70;;;1.20;;
75647;SDS011;64238;51.466;7.260;2022-10-16T00:50:11;2.25;;;1.00;;
75647;SDS011;64238;51.466;7.260;2022-10-16T00:52:47;3.15;;;1.15;;
75647;SDS011;64238;51.466;7.260;2022-10-16T00:55:14;3.15;;;1.00;;
75647;SDS011;64238;51.466;7.260;2022-10-16T00:57:41;2.95;;;1.17;;
75647;SDS011;64238;51.466;7.260;2022-10-16T01:00:10;3.22;;;1.25;;
75647;SDS011;64238;51.466;7.260;2022-10-16T01:02:37;3.22;;;1.20;;
75647;SDS011;64238;51.466;7.260;2022-10-16T01:05:03;2.78;;;1.08;;
75647;SDS011;64238;51.466;7.260;2022-10-16T01:10:14;2.28;;;1.00;;
75647;SDS011;64238;51.466;7.260;2022-10-16T01:13:01;2.55;;;1.20;;
75647;SDS011;64238;51.466;7.260;2022-10-16T01:15:43;2.95;;;1.17;;
75647;SDS011;64238;51.466;7.260;2022-10-16T01:18:29;2.30;;;1.00;;
75647;SDS011;64238;51.466;7.260;2022-10-16T01:21:03;2.35;;;1.00;;
75647;SDS011;64238;51.466;7.260;2022-10-16T01:26:13;2.78;;;1.20;;
75647;SDS011;64238;51.466;7.260;2022-10-16T01:28:55;2.47;;;1.00;;
75647;SDS011;64238;51.466;7.260;2022-10-16T01:31:27;1.67;;;0.95;;
75647;SDS011;64238;51.466;7.260;2022-10-16T01:34:00;3.17;;;1.20;;
75647;SDS011;64238;51.466;7.260;2022-10-16T01:37:04;2.10;;;1.00;;
75647;SDS011;64238;51.466;7.260;2022-10-16T01:39:35;2.92;;;1.25;;
75647;SDS011;64238;51.466;7.260;2022-10-16T01:42:07;2.22;;;1.00;;
75647;SDS011;64238;51.466;7.260;2022-10-16T01:44:42;2.15;;;1.00;;
75647;SDS011;64238;51.466;7.260;2022-10-16T01:47:11;2.60;;;1.10;;
75647;SDS011;64238;51.466;7.260;2022-10-16T01:49:38;4.47;;;1.30;;
75647;SDS011;64238;51.466;7.260;2022-10-16T01:52:07;2.88;;;1.10;;
75647;SDS011;64238;51.466;7.260;2022-10-16T01:54:39;2.63;;;1.10;;
75647;SDS011;64238;51.466;7.260;2022-10-16T01:57:07;3.17;;;1.10;;
75647;SDS011;64238;51.466;7.260;2022-10-16T01:59:35;3.28;;;1.17;;
75647;SDS011;64238;51.466;7.260;2022-10-16T02:02:08;2.47;;;1.20;;
75647;SDS011;64238;51.466;7.260;2022-10-16T02:04:37;2.47;;;0.95;;
75647;SDS011;64238;51.466;7.260;2022-10-16T02:07:07;2.83;;;1.10;;
75647;SDS011;64238;51.466;7.260;2022-10-16T02:09:33;2.40;;;1.00;;
75647;SDS011;64238;51.466;7.260;2022-10-16T02:12:01;3.03;;;1.15;;
75647;SDS011;64238;51.466;7.260;2022-10-16T02:14:33;3.55;;;1.20;;
75647;SDS011;64238;51.466;7.260;2022-10-16T02:17:00;3.42;;;1.25;;
75647;SDS011;64238;51.466;7.260;2022-10-16T02:19:26;2.55;;;1.10;;
75647;SDS011;64238;51.466;7.260;2022-10-16T02:21:56;2.55;;;1.13;;
75647;SDS011;64238;51.466;7.260;2022-10-16T02:27:43;2.42;;;1.02;;
75647;SDS011;64238;51.466;7.260;2022-10-16T02:30:58;2.47;;;1.08;;
75647;SDS011;64238;51.466;7.260;2022-10-16T02:33:10;1.88;;;1.00;;
75647;SDS011;64238;51.466;7.260;2022-10-16T02:35:40;2.78;;;1.15;;
75647;SDS011;64238;51.466;7.260;2022-10-16T02:38:07;3.35;;;1.08;;
75647;SDS011;64238;51.466;7.260;2022-10-16T02:40:33;2.42;;;1.10;;
75647;SDS011;64238;51.466;7.260;2022-10-16T02:42:59;2.97;;;1.10;;
75647;SDS011;64238;51.466;7.260;2022-10-16T02:45:28;2.45;;;1.10;;
75647;SDS011;64238;51.466;7.260;2022-10-16T02:47:54;3.35;;;1.20;;
75647;SDS011;64238;51.466;7.260;2022-10-16T02:50:19;2.53;;;1.08;;
75647;SDS011;64238;51.466;7.260;2022-10-16T02:52:45;2.88;;;1.00;;
75647;SDS011;64238;51.466;7.260;2022-10-16T02:55:11;2.75;;;1.10;;
75647;SDS011;64238;51.466;7.260;2022-10-16T02:57:36;2.85;;;1.00;;
75647;SDS011;64238;51.466;7.260;2022-10-16T03:00:07;2.67;;;1.13;;
75647;SDS011;64238;51.466;7.260;2022-10-16T03:02:34;3.35;;;1.20;;
75647;SDS011;64238;51.466;7.260;2022-10-16T03:05:00;2.75;;;1.05;;
75647;SDS011;64238;51.466;7.260;2022-10-16T03:07:25;2.42;;;1.00;;
75647;SDS011;64238;51.466;7.260;2022-10-16T03:09:51;2.38;;;1.00;;
75647;SDS011;64238;51.466;7.260;2022-10-16T03:12:17;2.42;;;1.00;;
75647;SDS011;64238;51.466;7.260;2022-10-16T03:14:42;3.28;;;1.20;;
75647;SDS011;64238;51.466;7.260;2022-10-16T03:17:08;3.38;;;1.10;;
75647;SDS011;64238;51.466;7.260;2022-10-16T03:19:34;4.22;;;1.20;;
75647;SDS011;64238;51.466;7.260;2022-10-16T03:22:00;1.98;;;1.05;;
75647;SDS011;64238;51.466;7.260;2022-10-16T03:24:26;2.67;;;1.25;;
75647;SDS011;64238;51.466;7.260;2022-10-16T03:26:51;2.28;;;0.95;;
75647;SDS011;64238;51.466;7.260;2022-10-16T03:29:17;2.72;;;1.10;;
75647;SDS011;64238;51.466;7.260;2022-10-16T03:31:42;2.42;;;1.10;;
75647;SDS011;64238;51.466;7.260;2022-10-16T03:34:08;3.08;;;1.20;;
75647;SDS011;64238;51.466;7.260;2022-10-16T03:36:34;2.95;;;1.20;;
75647;SDS011;64238;51.466;7.260;2022-10-16T03:38:59;2.78;;;1.10;;
75647;SDS011;64238;51.466;7.260;2022-10-16T03:41:25;2.72;;;1.13;;
75647;SDS011;64238;51.466;7.260;2022-10-16T03:43:50;2.72;;;1.15;;
75647;SDS011;64238;51.466;7.260;2022-10-16T03:46:16;2.97;;;1.20;;
75647;SDS011;64238;51.466;7.260;2022-10-16T03:48:42;3.70;;;1.10;;
75647;SDS011;64238;51.466;7.260;2022-10-16T03:51:07;3.38;;;1.20;;
75647;SDS011;64238;51.466;7.260;2022-10-16T03:53:33;2.72;;;1.02;;
75647;SDS011;64238;51.466;7.260;2022-10-16T03:55:58;2.28;;;1.08;;
75647;SDS011;64238;51.466;7.260;2022-10-16T03:58:24;3.20;;;1.15;;
75647;SDS011;64238;51.466;7.260;2022-10-16T04:00:50;2.22;;;1.00;;
75647;SDS011;64238;51.466;7.260;2022-10-16T04:03:15;2.58;;;1.10;;
75647;SDS011;64238;51.466;7.260;2022-10-16T04:05:42;3.22;;;1.20;;
75647;SDS011;64238;51.466;7.260;2022-10-16T04:08:07;2.25;;;1.08;;
75647;SDS011;64238;51.466;7.260;2022-10-16T04:10:33;2.30;;;1.00;;
75647;SDS011;64238;51.466;7.260;2022-10-16T04:12:59;2.22;;;1.00;;
75647;SDS011;64238;51.466;7.260;2022-10-16T04:15:25;3.08;;;1.20;;
75647;SDS011;64238;51.466;7.260;2022-10-16T04:17:51;2.38;;;1.00;;
75647;SDS011;64238;51.466;7.260;2022-10-16T04:20:18;2.58;;;1.02;;
75647;SDS011;64238;51.466;7.260;2022-10-16T04:22:44;3.00;;;1.10;;
75647;SDS011;64238;51.466;7.260;2022-10-16T04:25:10;3.65;;;1.17;;
75647;SDS011;64238;51.466;7.260;2022-10-16T04:27:36;2.70;;;1.10;;
75647;SDS011;64238;51.466;7.260;2022-10-16T04:30:03;2.97;;;1.10;;
75647;SDS011;64238;51.466;7.260;2022-10-16T04:32:29;3.22;;;1.15;;
75647;SDS011;64238;51.466;7.260;2022-10-16T04:34:55;3.03;;;1.10;;
75647;SDS011;64238;51.466;7.260;2022-10-16T04:37:24;2.28;;;1.02;;
75647;SDS011;64238;51.466;7.260;2022-10-16T04:39:50;2.53;;;1.00;;
75647;SDS011;64238;51.466;7.260;2022-10-16T04:42:16;2.70;;;1.00;;
75647;SDS011;64238;51.466;7.260;2022-10-16T04:44:41;2.35;;;1.20;;
75647;SDS011;64238;51.466;7.260;2022-10-16T04:47:07;2.75;;;1.25;;
75647;SDS011;64238;51.466;7.260;2022-10-16T04:49:33;2.35;;;0.90;;
75647;SDS011;64238;51.466;7.260;2022-10-16T04:51:58;2.35;;;1.00;;
75647;SDS011;64238;51.466;7.260;2022-10-16T04:54:24;3.42;;;1.17;;
75647;SDS011;64238;51.466;7.260;2022-10-16T04:56:50;3.05;;;1.35;;
75647;SDS011;64238;51.466;7.260;2022-10-16T04:59:17;3.55;;;1.08;;
75647;SDS011;64238;51.466;7.260;2022-10-16T05:01:44;2.38;;;1.10;;
75647;SDS011;64238;51.466;7.260;2022-10-16T05:04:09;2.53;;;1.13;;
75647;SDS011;64238;51.466;7.260;2022-10-16T05:06:35;2.72;;;1.00;;
75647;SDS011;64238;51.466;7.260;2022-10-16T05:09:03;3.03;;;1.10;;
75647;SDS011;64238;51.466;7.260;2022-10-16T05:11:29;4.25;;;1.20;;
75647;SDS011;64238;51.466;7.260;2022-10-16T05:13:55;3.53;;;1.20;;
75647;SDS011;64238;51.466;7.260;2022-10-16T05:16:21;2.30;;;1.00;;
75647;SDS011;64238;51.466;7.260;2022-10-16T05:18:46;3.33;;;1.10;;
75647;SDS011;64238;51.466;7.260;2022-10-16T05:21:12;3.50;;;1.38;;
75647;SDS011;64238;51.466;7.260;2022-10-16T05:23:37;2.22;;;1.08;;
75647;SDS011;64238;51.466;7.260;2022-10-16T05:26:03;3.00;;;1.10;;
75647;SDS011;64238;51.466;7.260;2022-10-16T05:28:29;3.08;;;1.20;;
75647;SDS011;64238;51.466;7.260;2022-10-16T05:30:55;2.63;;;1.25;;
75647;SDS011;64238;51.466;7.260;2022-10-16T05:33:22;2.80;;;1.10;;
75647;SDS011;64238;51.466;7.260;2022-10-16T05:35:49;3.92;;;1.25;;
75647;SDS011;64238;51.466;7.260;2022-10-16T05:38:18;2.88;;;1.10;;
75647;SDS011;64238;51.466;7.260;2022-10-16T05:40:50;3.72;;;1.20;;
75647;SDS011;64238;51.466;7.260;2022-10-16T05:43:16;2.25;;;1.10;;
75647;SDS011;64238;51.466;7.260;2022-10-16T05:45:41;2.13;;;1.08;;
75647;SDS011;64238;51.466;7.260;2022-10-16T05:48:07;2.42;;;1.00;;
75647;SDS011;64238;51.466;7.260;2022-10-16T05:50:33;2.85;;;1.05;;
75647;SDS011;64238;51.466;7.260;2022-10-16T05:52:59;2.80;;;1.10;;
75647;SDS011;64238;51.466;7.260;2022-10-16T05:55:24;2.90;;;1.10;;
75647;SDS011;64238;51.466;7.260;2022-10-16T05:57:50;2.70;;;1.10;;
75647;SDS011;64238;51.466;7.260;2022-10-16T06:00:18;3.65;;;1.30;;
75647;SDS011;64238;51.466;7.260;2022-10-16T06:02:44;3.08;;;1.20;;
75647;SDS011;64238;51.466;7.260;2022-10-16T06:05:09;2.65;;;1.10;;
75647;SDS011;64238;51.466;7.260;2022-10-16T06:07:35;2.50;;;1.10;;
75647;SDS011;64238;51.466;7.260;2022-10-16T06:10:01;3.10;;;1.10;;
75647;SDS011;64238;51.466;7.260;2022-10-16T06:12:27;2.70;;;1.10;;
75647;SDS011;64238;51.466;7.260;2022-10-16T06:14:53;3.88;;;1.30;;
75647;SDS011;64238;51.466;7.260;2022-10-16T06:17:19;3.53;;;1.15;;
75647;SDS011;64238;51.466;7.260;2022-10-16T06:19:44;2.92;;;1.20;;
75647;SDS011;64238;51.466;7.260;2022-10-16T06:22:10;2.55;;;1.10;;
75647;SDS011;64238;51.466;7.260;2022-10-16T06:24:35;3.60;;;1.20;;
75647;SDS011;64238;51.466;7.260;2022-10-16T06:27:02;3.17;;;1.10;;
75647;SDS011;64238;51.466;7.260;2022-10-16T06:29:29;4.20;;;1.30;;
75647;SDS011;64238;51.466;7.260;2022-10-16T06:31:54;2.40;;;1.10;;
75647;SDS011;64238;51.466;7.260;2022-10-16T06:34:20;2.42;;;1.00;;
75647;SDS011;64238;51.466;7.260;2022-10-16T06:36:45;3.13;;;1.20;;
75647;SDS011;64238;51.466;7.260;2022-10-16T06:39:11;3.53;;;1.30;;
75647;SDS011;64238;51.466;7.260;2022-10-16T06:41:36;2.88;;;1.13;;
75647;SDS011;64238;51.466;7.260;2022-10-16T06:44:06;3.40;;;1.25;;
75647;SDS011;64238;51.466;7.260;2022-10-16T06:46:32;2.85;;;1.20;;
75647;SDS011;64238;51.466;7.260;2022-10-16T06:48:58;3.10;;;1.25;;
75647;SDS011;64238;51.466;7.260;2022-10-16T06:51:24;2.78;;;1.05;;
75647;SDS011;64238;51.466;7.260;2022-10-16T06:53:54;3.65;;;1.38;;
75647;SDS011;64238;51.466;7.260;2022-10-16T06:56:22;2.92;;;1.13;;
75647;SDS011;64238;51.466;7.260;2022-10-16T06:58:49;3.13;;;1.13;;
75647;SDS011;64238;51.466;7.260;2022-10-16T07:01:16;2.42;;;1.00;;
75647;SDS011;64238;51.466;7.260;2022-10-16T07:03:45;3.38;;;1.40;;
75647;SDS011;64238;51.466;7.260;2022-10-16T07:06:12;3.30;;;1.15;;
75647;SDS011;64238;51.466;7.260;2022-10-16T07:08:41;2.55;;;1.10;;
75647;SDS011;64238;51.466;7.260;2022-10-16T07:11:10;3.78;;;1.30;;
75647;SDS011;64238;51.466;7.260;2022-10-16T07:13:40;3.17;;;1.10;;
75647;SDS011;64238;51.466;7.260;2022-10-16T07:16:17;3.00;;;1.20;;
75647;SDS011;64238;51.466;7.260;2022-10-16T07:18:44;3.55;;;1.20;;
75647;SDS011;64238;51.466;7.260;2022-10-16T07:21:12;2.33;;;1.10;;
75647;SDS011;64238;51.466;7.260;2022-10-16T07:23:40;4.63;;;1.38;;
75647;SDS011;64238;51.466;7.260;2022-10-16T07:26:06;3.10;;;1.20;;
75647;SDS011;64238;51.466;7.260;2022-10-16T07:28:33;3.13;;;1.23;;
75647;SDS011;64238;51.466;7.260;2022-10-16T07:31:02;4.07;;;1.30;;
75647;SDS011;64238;51.466;7.260;2022-10-16T07:33:30;3.00;;;1.10;;
75647;SDS011;64238;51.466;7.260;2022-10-16T07:35:56;2.72;;;1.30;;
75647;SDS011;64238;51.466;7.260;2022-10-16T07:38:21;2.38;;;1.10;;
75647;SDS011;64238;51.466;7.260;2022-10-16T07:40:47;3.15;;;1.20;;
75647;SDS011;64238;51.466;7.260;2022-10-16T07:43:13;3.63;;;1.15;;
75647;SDS011;64238;51.466;7.260;2022-10-16T07:45:48;2.97;;;1.17;;
75647;SDS011;64238;51.466;7.260;2022-10-16T07:48:15;3.65;;;1.20;;
75647;SDS011;64238;51.466;7.260;2022-10-16T07:50:42;3.33;;;1.40;;
75647;SDS011;64238;51.466;7.260;2022-10-16T07:53:08;3.63;;;1.30;;
75647;SDS011;64238;51.466;7.260;2022-10-16T07:55:34;2.20;;;1.10;;
75647;SDS011;64238;51.466;7.260;2022-10-16T07:57:59;3.72;;;1.20;;
75647;SDS011;64238;51.466;7.260;2022-10-16T08:00:25;2.50;;;1.15;;
75647;SDS011;64238;51.466;7.260;2022-10-16T08:02:50;3.50;;;1.35;;
75647;SDS011;64238;51.466;7.260;2022-10-16T08:05:16;3.13;;;1.30;;
75647;SDS011;64238;51.466;7.260;2022-10-16T08:07:41;2.78;;;1.17;;
75647;SDS011;64238;51.466;7.260;2022-10-16T08:10:11;3.15;;;1.10;;
75647;SDS011;64238;51.466;7.260;2022-10-16T08:12:42;2.78;;;1.20;;
75647;SDS011;64238;51.466;7.260;2022-10-16T08:15:08;3.53;;;1.33;;
75647;SDS011;64238;51.466;7.260;2022-10-16T08:17:34;2.58;;;1.10;;
75647;SDS011;64238;51.466;7.260;2022-10-16T08:19:59;2.80;;;1.10;;
75647;SDS011;64238;51.466;7.260;2022-10-16T08:22:25;1.90;;;1.00;;
75647;SDS011;64238;51.466;7.260;2022-10-16T08:24:50;3.67;;;1.10;;
75647;SDS011;64238;51.466;7.260;2022-10-16T08:27:16;2.05;;;1.05;;
75647;SDS011;64238;51.466;7.260;2022-10-16T08:29:42;3.75;;;1.20;;
75647;SDS011;64238;51.466;7.260;2022-10-16T08:32:07;3.30;;;1.20;;
75647;SDS011;64238;51.466;7.260;2022-10-16T08:34:33;2.25;;;1.10;;
75647;SDS011;64238;51.466;7.260;2022-10-16T08:36:59;2.40;;;1.10;;
75647;SDS011;64238;51.466;7.260;2022-10-16T08:39:24;3.08;;;1.23;;
75647;SDS011;64238;51.466;7.260;2022-10-16T08:41:55;2.53;;;1.20;;
75647;SDS011;64238;51.466;7.260;2022-10-16T08:49:41;2.67;;;1.10;;
75647;SDS011;64238;51.466;7.260;2022-10-16T08:52:12;3.65;;;1.30;;
75647;SDS011;64238;51.466;7.260;2022-10-16T08:54:41;3.33;;;1.13;;
75647;SDS011;64238;51.466;7.260;2022-10-16T08:57:19;2.40;;;1.10;;
75647;SDS011;64238;51.466;7.260;2022-10-16T08:59:46;2.75;;;1.02;;
75647;SDS011;64238;51.466;7.260;2022-10-16T09:07:49;3.60;;;1.20;;
75647;SDS011;64238;51.466;7.260;2022-10-16T09:10:28;2.97;;;1.20;;
75647;SDS011;64238;51.466;7.260;2022-10-16T09:18:34;3.15;;;1.20;;
75647;SDS011;64238;51.466;7.260;2022-10-16T09:21:14;2.63;;;1.10;;
75647;SDS011;64238;51.466;7.260;2022-10-16T09:23:44;2.70;;;1.20;;
75647;SDS011;64238;51.466;7.260;2022-10-16T09:26:11;3.10;;;1.15;;
75647;SDS011;64238;51.466;7.260;2022-10-16T09:28:38;1.95;;;0.90;;
75647;SDS011;64238;51.466;7.260;2022-10-16T09:31:04;2.90;;;1.20;;
75647;SDS011;64238;51.466;7.260;2022-10-16T09:33:32;2.72;;;1.10;;
75647;SDS011;64238;51.466;7.260;2022-10-16T09:36:03;2.72;;;1.20;;
75647;SDS011;64238;51.466;7.260;2022-10-16T09:38:34;3.10;;;1.10;;
75647;SDS011;64238;51.466;7.260;2022-10-16T09:41:02;1.92;;;1.10;;
75647;SDS011;64238;51.466;7.260;2022-10-16T09:49:05;2.97;;;1.10;;
75647;SDS011;64238;51.466;7.260;2022-10-16T09:51:45;3.13;;;1.30;;
75647;SDS011;64238;51.466;7.260;2022-10-16T09:54:13;3.05;;;1.23;;
75647;SDS011;64238;51.466;7.260;2022-10-16T09:56:40;3.38;;;1.35;;
75647;SDS011;64238;51.466;7.260;2022-10-16T09:59:14;3.35;;;1.15;;
75647;SDS011;64238;51.466;7.260;2022-10-16T10:01:42;2.17;;;1.00;;
75647;SDS011;64238;51.466;7.260;2022-10-16T10:04:16;3.53;;;1.20;;
75647;SDS011;64238;51.466;7.260;2022-10-16T10:06:46;2.88;;;1.17;;
75647;SDS011;64238;51.466;7.260;2022-10-16T10:09:24;3.00;;;1.08;;
75647;SDS011;64238;51.466;7.260;2022-10-16T10:14:30;2.97;;;1.08;;
75647;SDS011;64238;51.466;7.260;2022-10-16T10:17:07;3.25;;;1.08;;
75647;SDS011;64238;51.466;7.260;2022-10-16T10:19:40;2.47;;;1.00;;
75647;SDS011;64238;51.466;7.260;2022-10-16T10:22:16;3.22;;;1.10;;
75647;SDS011;64238;51.466;7.260;2022-10-16T10:24:53;2.88;;;1.10;;
75647;SDS011;64238;51.466;7.260;2022-10-16T10:27:20;2.03;;;1.10;;
75647;SDS011;64238;51.466;7.260;2022-10-16T10:30:01;2.25;;;1.05;;
75647;SDS011;64238;51.466;7.260;2022-10-16T10:35:22;1.67;;;1.05;;
75647;SDS011;64238;51.466;7.260;2022-10-16T10:46:29;3.10;;;1.00;;
75647;SDS011;64238;51.466;7.260;2022-10-16T10:51:44;2.75;;;1.00;;
75647;SDS011;64238;51.466;7.260;2022-10-16T10:57:02;2.47;;;1.00;;
75647;SDS011;64238;51.466;7.260;2022-10-16T11:05:35;3.95;;;1.20;;
75647;SDS011;64238;51.466;7.260;2022-10-16T11:08:11;3.15;;;1.27;;
75647;SDS011;64238;51.466;7.260;2022-10-16T11:10:44;2.38;;;1.02;;
75647;SDS011;64238;51.466;7.260;2022-10-16T11:15:52;2.20;;;1.02;;
75647;SDS011;64238;51.466;7.260;2022-10-16T11:18:23;4.45;;;1.38;;
75647;SDS011;64238;51.466;7.260;2022-10-16T11:21:11;2.78;;;1.08;;
75647;SDS011;64238;51.466;7.260;2022-10-16T11:23:48;3.22;;;1.20;;
75647;SDS011;64238;51.466;7.260;2022-10-16T11:26:21;2.58;;;1.05;;
75647;SDS011;64238;51.466;7.260;2022-10-16T11:28:56;2.35;;;1.00;;
75647;SDS011;64238;51.466;7.260;2022-10-16T11:37:02;2.90;;;1.10;;
75647;SDS011;64238;51.466;7.260;2022-10-16T11:39:38;2.45;;;1.10;;
75647;SDS011;64238;51.466;7.260;2022-10-16T11:42:10;2.63;;;1.20;;
75647;SDS011;64238;51.466;7.260;2022-10-16T11:50:02;2.75;;;1.13;;
75647;SDS011;64238;51.466;7.260;2022-10-16T11:55:41;2.72;;;1.10;;
75647;SDS011;64238;51.466;7.260;2022-10-16T12:00:39;3.33;;;1.10;;
75647;SDS011;64238;51.466;7.260;2022-10-16T12:09:14;2.92;;;1.10;;
75647;SDS011;64238;51.466;7.260;2022-10-16T12:11:44;2.22;;;0.88;;
75647;SDS011;64238;51.466;7.260;2022-10-16T12:16:50;2.95;;;1.20;;
75647;SDS011;64238;51.466;7.260;2022-10-16T12:19:25;3.20;;;1.20;;
75647;SDS011;64238;51.466;7.260;2022-10-16T12:21:54;2.53;;;1.08;;
75647;SDS011;64238;51.466;7.260;2022-10-16T12:24:38;3.78;;;1.10;;
75647;SDS011;64238;51.466;7.260;2022-10-16T12:27:52;2.53;;;1.00;;
75647;SDS011;64238;51.466;7.260;2022-10-16T12:29:57;2.15;;;1.08;;
75647;SDS011;64238;51.466;7.260;2022-10-16T12:32:34;2.15;;;1.10;;
75647;SDS011;64238;51.466;7.260;2022-10-16T12:35:02;2.78;;;1.00;;
75647;SDS011;64238;51.466;7.260;2022-10-16T12:37:31;2.45;;;0.90;;
75647;SDS011;64238;51.466;7.260;2022-10-16T12:40:15;2.75;;;1.13;;
75647;SDS011;64238;51.466;7.260;2022-10-16T12:42:53;3.53;;;1.10;;
75647;SDS011;64238;51.466;7.260;2022-10-16T12:45:24;3.55;;;0.98;;
75647;SDS011;64238;51.466;7.260;2022-10-16T12:47:59;2.22;;;1.00;;
75647;SDS011;64238;51.466;7.260;2022-10-16T12:50:28;1.88;;;1.00;;
75647;SDS011;64238;51.466;7.260;2022-10-16T12:52:57;3.30;;;1.17;;
75647;SDS011;64238;51.466;7.260;2022-10-16T12:55:23;2.70;;;0.98;;
75647;SDS011;64238;51.466;7.260;2022-10-16T12:57:57;3.25;;;1.17;;
75647;SDS011;64238;51.466;7.260;2022-10-16T13:00:36;1.85;;;0.93;;
75647;SDS011;64238;51.466;7.260;2022-10-16T13:11:43;2.70;;;1.10;;
75647;SDS011;64238;51.466;7.260;2022-10-16T13:23:17;2.75;;;1.10;;
75647;SDS011;64238;51.466;7.260;2022-10-16T13:29:01;2.10;;;1.08;;
75647;SDS011;64238;51.466;7.260;2022-10-16T13:31:30;2.30;;;1.13;;
75647;SDS011;64238;51.466;7.260;2022-10-16T13:33:57;2.35;;;0.93;;
75647;SDS011;64238;51.466;7.260;2022-10-16T13:36:35;2.90;;;1.02;;
75647;SDS011;64238;51.466;7.260;2022-10-16T13:39:15;1.73;;;0.90;;
75647;SDS011;64238;51.466;7.260;2022-10-16T13:41:46;2.92;;;1.02;;
75647;SDS011;64238;51.466;7.260;2022-10-16T13:44:23;2.13;;;1.00;;
75647;SDS011;64238;51.466;7.260;2022-10-16T13:46:57;2.92;;;1.00;;
75647;SDS011;64238;51.466;7.260;2022-10-16T13:49:27;2.42;;;0.95;;
75647;SDS011;64238;51.466;7.260;2022-10-16T13:51:56;2.28;;;1.00;;
75647;SDS011;64238;51.466;7.260;2022-10-16T13:54:24;3.30;;;1.10;;
75647;SDS011;64238;51.466;7.260;2022-10-16T13:56:51;3.50;;;1.08;;
75647;SDS011;64238;51.466;7.260;2022-10-16T13:59:24;3.78;;;1.10;;
75647;SDS011;64238;51.466;7.260;2022-10-16T14:01:55;2.75;;;1.00;;
75647;SDS011;64238;51.466;7.260;2022-10-16T14:04:22;3.45;;;1.25;;
75647;SDS011;64238;51.466;7.260;2022-10-16T14:06:50;2.47;;;1.00;;
75647;SDS011;64238;51.466;7.260;2022-10-16T14:11:48;3.25;;;1.10;;
75647;SDS011;64238;51.466;7.260;2022-10-16T14:14:16;3.38;;;1.00;;
75647;SDS011;64238;51.466;7.260;2022-10-16T14:16:43;3.10;;;1.00;;
75647;SDS011;64238;51.466;7.260;2022-10-16T14:19:21;3.33;;;1.00;;
75647;SDS011;64238;51.466;7.260;2022-10-16T14:21:50;3.67;;;1.20;;
75647;SDS011;64238;51.466;7.260;2022-10-16T14:24:26;2.30;;;0.90;;
75647;SDS011;64238;51.466;7.260;2022-10-16T14:26:58;2.45;;;1.10;;
75647;SDS011;64238;51.466;7.260;2022-10-16T14:29:24;2.72;;;1.20;;
75647;SDS011;64238;51.466;7.260;2022-10-16T14:31:58;4.03;;;1.27;;
75647;SDS011;64238;51.466;7.260;2022-10-16T14:34:52;3.17;;;1.20;;
75647;SDS011;64238;51.466;7.260;2022-10-16T14:37:25;3.78;;;1.17;;
75647;SDS011;64238;51.466;7.260;2022-10-16T14:39:54;2.67;;;1.08;;
75647;SDS011;64238;51.466;7.260;2022-10-16T14:42:20;3.30;;;1.27;;
75647;SDS011;64238;51.466;7.260;2022-10-16T14:44:51;4.32;;;1.33;;
75647;SDS011;64238;51.466;7.260;2022-10-16T14:47:19;4.15;;;1.45;;
75647;SDS011;64238;51.466;7.260;2022-10-16T14:49:49;2.85;;;1.08;;
75647;SDS011;64238;51.466;7.260;2022-10-16T14:52:16;3.30;;;1.10;;
75647;SDS011;64238;51.466;7.260;2022-10-16T14:54:41;3.70;;;1.10;;
75647;SDS011;64238;51.466;7.260;2022-10-16T14:59:39;3.85;;;1.15;;
75647;SDS011;64238;51.466;7.260;2022-10-16T15:02:15;3.17;;;1.13;;
75647;SDS011;64238;51.466;7.260;2022-10-16T15:04:50;3.22;;;1.05;;
75647;SDS011;64238;51.466;7.260;2022-10-16T15:07:15;4.25;;;1.30;;
75647;SDS011;64238;51.466;7.260;2022-10-16T15:09:41;3.75;;;1.25;;
75647;SDS011;64238;51.466;7.260;2022-10-16T15:12:07;2.72;;;1.20;;
75647;SDS011;64238;51.466;7.260;2022-10-16T15:14:32;2.63;;;1.10;;
75647;SDS011;64238;51.466;7.260;2022-10-16T15:16:58;2.45;;;1.10;;
75647;SDS011;64238;51.466;7.260;2022-10-16T15:19:24;3.63;;;1.10;;
75647;SDS011;64238;51.466;7.260;2022-10-16T15:21:49;3.03;;;1.08;;
75647;SDS011;64238;51.466;7.260;2022-10-16T15:24:15;4.10;;;1.23;;
75647;SDS011;64238;51.466;7.260;2022-10-16T15:26:41;2.38;;;1.08;;
75647;SDS011;64238;51.466;7.260;2022-10-16T15:29:07;3.58;;;1.30;;
75647;SDS011;64238;51.466;7.260;2022-10-16T15:31:33;3.35;;;1.20;;
75647;SDS011;64238;51.466;7.260;2022-10-16T15:33:59;3.92;;;1.20;;
75647;SDS011;64238;51.466;7.260;2022-10-16T15:36:30;4.80;;;1.60;;
75647;SDS011;64238;51.466;7.260;2022-10-16T15:38:59;3.58;;;1.35;;
75647;SDS011;64238;51.466;7.260;2022-10-16T15:41:25;2.83;;;1.10;;
75647;SDS011;64238;51.466;7.260;2022-10-16T15:43:51;3.78;;;1.42;;
75647;SDS011;64238;51.466;7.260;2022-10-16T15:46:21;3.80;;;1.30;;
75647;SDS011;64238;51.466;7.260;2022-10-16T15:48:48;5.45;;;1.50;;
75647;SDS011;64238;51.466;7.260;2022-10-16T15:51:15;4.00;;;1.42;;
75647;SDS011;64238;51.466;7.260;2022-10-16T15:53:42;5.32;;;1.60;;
75647;SDS011;64238;51.466;7.260;2022-10-16T15:56:09;5.85;;;1.77;;
75647;SDS011;64238;51.466;7.260;2022-10-16T15:58:36;4.43;;;1.60;;
75647;SDS011;64238;51.466;7.260;2022-10-16T16:01:02;3.97;;;1.75;;
75647;SDS011;64238;51.466;7.260;2022-10-16T16:03:29;5.88;;;1.70;;
75647;SDS011;64238;51.466;7.260;2022-10-16T16:05:56;5.05;;;1.70;;
75647;SDS011;64238;51.466;7.260;2022-10-16T16:08:22;5.32;;;1.70;;
75647;SDS011;64238;51.466;7.260;2022-10-16T16:11:03;6.55;;;1.70;;
75647;SDS011;64238;51.466;7.260;2022-10-16T16:13:33;5.07;;;1.90;;
75647;SDS011;64238;51.466;7.260;2022-10-16T16:15:59;5.85;;;1.90;;
75647;SDS011;64238;51.466;7.260;2022-10-16T16:18:25;5.82;;;2.13;;
75647;SDS011;64238;51.466;7.260;2022-10-16T16:20:51;5.53;;;1.88;;
75647;SDS011;64238;51.466;7.260;2022-10-16T16:23:17;5.43;;;2.03;;
75647;SDS011;64238;51.466;7.260;2022-10-16T16:25:44;4.90;;;1.90;;
75647;SDS011;64238;51.466;7.260;2022-10-16T16:28:10;4.75;;;1.77;;
75647;SDS011;64238;51.466;7.260;2022-10-16T16:30:39;6.93;;;2.00;;
75647;SDS011;64238;51.466;7.260;2022-10-16T16:33:05;7.90;;;1.92;;
75647;SDS011;64238;51.466;7.260;2022-10-16T16:35:31;5.90;;;2.05;;
75647;SDS011;64238;51.466;7.260;2022-10-16T16:37:57;6.40;;;2.30;;
75647;SDS011;64238;51.466;7.260;2022-10-16T16:40:22;5.90;;;2.17;;
75647;SDS011;64238;51.466;7.260;2022-10-16T16:42:48;4.90;;;2.05;;
75647;SDS011;64238;51.466;7.260;2022-10-16T16:45:14;5.90;;;1.85;;
75647;SDS011;64238;51.466;7.260;2022-10-16T16:47:39;5.47;;;2.15;;